sensor_id;sensor_type;location;lat;lon;timestamp;pressure;altitude;pressure_sealevel;temperature;humidity
53719;BME280;39616;48.872;9.390;2023-05-16T00:01:02;98017.22;;;9.03;100.00
53719;BME280;39616;48.872;9.390;2023-05-16T00:03:32;98012.97;;;8.97;100.00
53719;BME280;39616;48.872;9.390;2023-05-16T00:06:03;98021.91;;;8.98;100.00
53719;BME280;39616;48.872;9.390;2023-05-16T00:08:34;98014.31;;;9.00;100.00
53719;BME280;39616;48.872;9.390;2023-05-16T00:11:05;98017.00;;;9.00;100.00
53719;BME280;39616;48.872;9.390;2023-05-16T00:13:35;98014.34;;;8.94;100.00
53719;BME280;39616;48.872;9.390;2023-05-16T00:16:05;98015.19;;;8.95;100.00
53719;BME280;39616;48.872;9.390;2023-05-16T00:18:35;98011.66;;;8.94;100.00
53719;BME280;39616;48.872;9.390;2023-05-16T00:21:06;98013.34;;;8.90;100.00
53719;BME280;39616;48.872;9.390;2023-05-16T00:23:37;98012.31;;;8.86;100.00
53719;BME280;39616;48.872;9.390;2023-05-16T00:26:07;98007.28;;;8.80;100.00
53719;BME280;39616;48.872;9.390;2023-05-16T00:28:38;98015.38;;;8.80;100.00
53719;BME280;39616;48.872;9.390;2023-05-16T00:31:08;98010.19;;;8.83;100.00
53719;BME280;39616;48.872;9.390;2023-05-16T00:33:38;98010.19;;;8.83;100.00
53719;BME280;39616;48.872;9.390;2023-05-16T00:36:09;98009.97;;;8.80;100.00
53719;BME280;39616;48.872;9.390;2023-05-16T00:38:39;98007.06;;;8.76;100.00
53719;BME280;39616;48.872;9.390;2023-05-16T00:41:10;98007.66;;;8.73;100.00
53719;BME280;39616;48.872;9.390;2023-05-16T00:43:40;98011.75;;;8.70;100.00
53719;BME280;39616;48.872;9.390;2023-05-16T00:46:10;98014.53;;;8.65;100.00
53719;BME280;39616;48.872;9.390;2023-05-16T00:48:41;98016.63;;;8.68;100.00
53719;BME280;39616;48.872;9.390;2023-05-16T00:51:11;98016.03;;;8.71;100.00
53719;BME280;39616;48.872;9.390;2023-05-16T00:53:42;98014.09;;;8.77;100.00
53719;BME280;39616;48.872;9.390;2023-05-16T00:56:12;98011.97;;;8.74;100.00
53719;BME280;39616;48.872;9.390;2023-05-16T00:58:43;98008.16;;;8.75;100.00
53719;BME280;39616;48.872;9.390;2023-05-16T01:01:13;98003.06;;;8.74;100.00
53719;BME280;39616;48.872;9.390;2023-05-16T01:03:43;98001.44;;;8.73;100.00
53719;BME280;39616;48.872;9.390;2023-05-16T01:06:15;98005.75;;;8.74;100.00
53719;BME280;39616;48.872;9.390;2023-05-16T01:08:46;97999.91;;;8.66;100.00
53719;BME280;39616;48.872;9.390;2023-05-16T01:11:29;98001.88;;;8.61;100.00
53719;BME280;39616;48.872;9.390;2023-05-16T01:14:11;98002.75;;;8.56;100.00
53719;BME280;39616;48.872;9.390;2023-05-16T01:17:06;98008.44;;;8.55;100.00
53719;BME280;39616;48.872;9.390;2023-05-16T01:22:51;97997.47;;;8.46;100.00
53719;BME280;39616;48.872;9.390;2023-05-16T01:28:14;98004.50;;;8.47;100.00
53719;BME280;39616;48.872;9.390;2023-05-16T01:30:45;98000.97;;;8.46;100.00
53719;BME280;39616;48.872;9.390;2023-05-16T01:33:15;98005.88;;;8.44;100.00
53719;BME280;39616;48.872;9.390;2023-05-16T01:35:55;98003.19;;;8.44;100.00
53719;BME280;39616;48.872;9.390;2023-05-16T01:38:38;98011.78;;;8.46;100.00
53719;BME280;39616;48.872;9.390;2023-05-16T01:41:19;98002.88;;;8.46;100.00
53719;BME280;39616;48.872;9.390;2023-05-16T01:43:57;98006.09;;;8.48;100.00
53719;BME280;39616;48.872;9.390;2023-05-16T01:46:32;98003.66;;;8.46;100.00
53719;BME280;39616;48.872;9.390;2023-05-16T01:49:11;98009.91;;;8.47;100.00
53719;BME280;39616;48.872;9.390;2023-05-16T01:51:59;98010.97;;;8.46;100.00
53719;BME280;39616;48.872;9.390;2023-05-16T01:54:31;98009.16;;;8.41;100.00
53719;BME280;39616;48.872;9.390;2023-05-16T01:57:03;98004.31;;;8.38;100.00
53719;BME280;39616;48.872;9.390;2023-05-16T01:59:33;98010.56;;;8.34;100.00
53719;BME280;39616;48.872;9.390;2023-05-16T02:02:04;98011.38;;;8.34;100.00
53719;BME280;39616;48.872;9.390;2023-05-16T02:04:35;98016.84;;;8.29;100.00
53719;BME280;39616;48.872;9.390;2023-05-16T02:07:05;98012.88;;;8.21;100.00
53719;BME280;39616;48.872;9.390;2023-05-16T02:09:36;98010.75;;;8.18;100.00
53719;BME280;39616;48.872;9.390;2023-05-16T02:12:06;98012.13;;;8.16;100.00
53719;BME280;39616;48.872;9.390;2023-05-16T02:14:37;98014.34;;;8.14;100.00
53719;BME280;39616;48.872;9.390;2023-05-16T02:17:07;98017.03;;;8.14;100.00
53719;BME280;39616;48.872;9.390;2023-05-16T02:19:38;98012.53;;;8.04;100.00
53719;BME280;39616;48.872;9.390;2023-05-16T02:22:08;98017.72;;;8.01;100.00
53719;BME280;39616;48.872;9.390;2023-05-16T02:24:38;98015.88;;;7.96;100.00
53719;BME280;39616;48.872;9.390;2023-05-16T02:27:08;98018.97;;;7.84;100.00
53719;BME280;39616;48.872;9.390;2023-05-16T02:29:39;98020.09;;;7.78;100.00
53719;BME280;39616;48.872;9.390;2023-05-16T02:32:09;98024.50;;;7.69;100.00
53719;BME280;39616;48.872;9.390;2023-05-16T02:34:39;98021.00;;;7.68;100.00
53719;BME280;39616;48.872;9.390;2023-05-16T02:37:10;98021.78;;;7.69;100.00
53719;BME280;39616;48.872;9.390;2023-05-16T02:39:40;98021.47;;;7.75;100.00
53719;BME280;39616;48.872;9.390;2023-05-16T02:42:11;98022.81;;;7.78;100.00
53719;BME280;39616;48.872;9.390;2023-05-16T02:44:45;98011.44;;;7.81;100.00
53719;BME280;39616;48.872;9.390;2023-05-16T02:47:15;98021.88;;;7.88;100.00
53719;BME280;39616;48.872;9.390;2023-05-16T02:49:45;98022.34;;;7.95;100.00
53719;BME280;39616;48.872;9.390;2023-05-16T02:52:15;98020.97;;;7.97;100.00
53719;BME280;39616;48.872;9.390;2023-05-16T02:54:46;98031.16;;;8.06;100.00
53719;BME280;39616;48.872;9.390;2023-05-16T02:57:16;98025.69;;;8.11;100.00
53719;BME280;39616;48.872;9.390;2023-05-16T02:59:47;98027.22;;;8.17;100.00
53719;BME280;39616;48.872;9.390;2023-05-16T03:02:17;98018.78;;;8.23;100.00
53719;BME280;39616;48.872;9.390;2023-05-16T03:04:47;98022.53;;;8.28;100.00
53719;BME280;39616;48.872;9.390;2023-05-16T03:07:17;98023.28;;;8.33;100.00
53719;BME280;39616;48.872;9.390;2023-05-16T03:09:48;98022.53;;;8.28;100.00
53719;BME280;39616;48.872;9.390;2023-05-16T03:12:18;98014.16;;;8.29;100.00
53719;BME280;39616;48.872;9.390;2023-05-16T03:14:48;98019.81;;;8.28;100.00
53719;BME280;39616;48.872;9.390;2023-05-16T03:17:20;98018.97;;;8.32;100.00
53719;BME280;39616;48.872;9.390;2023-05-16T03:19:52;98013.53;;;8.37;100.00
53719;BME280;39616;48.872;9.390;2023-05-16T03:22:22;98012.16;;;8.40;100.00
53719;BME280;39616;48.872;9.390;2023-05-16T03:24:52;98025.91;;;8.43;100.00
53719;BME280;39616;48.872;9.390;2023-05-16T03:27:23;98018.00;;;8.47;100.00
53719;BME280;39616;48.872;9.390;2023-05-16T03:29:53;98028.16;;;8.55;100.00
53719;BME280;39616;48.872;9.390;2023-05-16T03:32:24;98033.72;;;8.64;100.00
53719;BME280;39616;48.872;9.390;2023-05-16T03:34:54;98025.34;;;8.65;100.00
53719;BME280;39616;48.872;9.390;2023-05-16T03:37:24;98029.91;;;8.65;100.00
53719;BME280;39616;48.872;9.390;2023-05-16T03:39:55;98029.91;;;8.65;100.00
53719;BME280;39616;48.872;9.390;2023-05-16T03:42:25;98026.75;;;8.58;100.00
53719;BME280;39616;48.872;9.390;2023-05-16T03:44:56;98034.88;;;8.58;100.00
53719;BME280;39616;48.872;9.390;2023-05-16T03:47:27;98026.19;;;8.61;100.00
53719;BME280;39616;48.872;9.390;2023-05-16T03:50:00;98024.50;;;8.65;100.00
53719;BME280;39616;48.872;9.390;2023-05-16T03:52:30;98032.25;;;8.71;100.00
53719;BME280;39616;48.872;9.390;2023-05-16T03:55:01;98021.69;;;8.75;100.00
53719;BME280;39616;48.872;9.390;2023-05-16T03:57:33;98025.63;;;8.83;100.00
53719;BME280;39616;48.872;9.390;2023-05-16T04:00:04;98028.50;;;8.91;100.00
53719;BME280;39616;48.872;9.390;2023-05-16T04:02:38;98037.31;;;8.97;100.00
53719;BME280;39616;48.872;9.390;2023-05-16T04:05:12;98038.06;;;9.03;100.00
53719;BME280;39616;48.872;9.390;2023-05-16T04:07:42;98037.53;;;9.01;100.00
53719;BME280;39616;48.872;9.390;2023-05-16T04:10:13;98041.25;;;9.05;100.00
53719;BME280;39616;48.872;9.390;2023-05-16T04:12:44;98047.91;;;9.12;100.00
53719;BME280;39616;48.872;9.390;2023-05-16T04:15:14;98056.25;;;9.16;100.00
53719;BME280;39616;48.872;9.390;2023-05-16T04:17:44;98055.78;;;9.28;100.00
53719;BME280;39616;48.872;9.390;2023-05-16T04:20:15;98054.56;;;9.39;100.00
53719;BME280;39616;48.872;9.390;2023-05-16T04:22:46;98055.19;;;9.50;100.00
53719;BME280;39616;48.872;9.390;2023-05-16T04:25:16;98055.81;;;9.60;100.00
53719;BME280;39616;48.872;9.390;2023-05-16T04:27:47;98064.09;;;9.69;100.00
53719;BME280;39616;48.872;9.390;2023-05-16T04:30:17;98054.69;;;9.80;100.00
53719;BME280;39616;48.872;9.390;2023-05-16T04:32:47;98058.00;;;9.91;100.00
53719;BME280;39616;48.872;9.390;2023-05-16T04:35:18;98063.00;;;9.98;100.00
53719;BME280;39616;48.872;9.390;2023-05-16T04:37:48;98065.84;;;10.06;100.00
53719;BME280;39616;48.872;9.390;2023-05-16T04:40:19;98055.50;;;10.08;100.00
53719;BME280;39616;48.872;9.390;2023-05-16T04:42:49;98058.53;;;10.07;100.00
53719;BME280;39616;48.872;9.390;2023-05-16T04:45:20;98058.84;;;10.05;100.00
53719;BME280;39616;48.872;9.390;2023-05-16T04:47:50;98063.16;;;10.06;100.00
53719;BME280;39616;48.872;9.390;2023-05-16T04:50:21;98062.53;;;9.96;100.00
53719;BME280;39616;48.872;9.390;2023-05-16T04:52:51;98058.63;;;10.02;100.00
53719;BME280;39616;48.872;9.390;2023-05-16T04:55:21;98062.75;;;9.99;100.00
53719;BME280;39616;48.872;9.390;2023-05-16T04:57:52;98069.19;;;10.17;100.00
53719;BME280;39616;48.872;9.390;2023-05-16T05:00:22;98067.56;;;10.16;100.00
53719;BME280;39616;48.872;9.390;2023-05-16T05:02:53;98064.97;;;10.11;100.00
53719;BME280;39616;48.872;9.390;2023-05-16T05:05:23;98063.97;;;10.21;100.00
53719;BME280;39616;48.872;9.390;2023-05-16T05:07:53;98060.66;;;10.24;100.00
53719;BME280;39616;48.872;9.390;2023-05-16T05:10:24;98066.88;;;10.24;100.00
53719;BME280;39616;48.872;9.390;2023-05-16T05:12:56;98070.69;;;10.23;100.00
53719;BME280;39616;48.872;9.390;2023-05-16T05:15:27;98065.88;;;10.20;100.00
53719;BME280;39616;48.872;9.390;2023-05-16T05:17:57;98069.66;;;10.19;100.00
53719;BME280;39616;48.872;9.390;2023-05-16T05:20:27;98058.44;;;9.98;100.00
53719;BME280;39616;48.872;9.390;2023-05-16T05:22:58;98066.13;;;10.05;100.00
53719;BME280;39616;48.872;9.390;2023-05-16T05:25:28;98059.94;;;10.18;100.00
53719;BME280;39616;48.872;9.390;2023-05-16T05:27:59;98063.59;;;10.27;100.00
53719;BME280;39616;48.872;9.390;2023-05-16T05:30:29;98067.59;;;10.30;100.00
53719;BME280;39616;48.872;9.390;2023-05-16T05:32:59;98072.75;;;10.31;100.00
53719;BME280;39616;48.872;9.390;2023-05-16T05:35:30;98080.72;;;10.23;100.00
53719;BME280;39616;48.872;9.390;2023-05-16T05:38:00;98074.63;;;10.31;100.00
53719;BME280;39616;48.872;9.390;2023-05-16T05:40:31;98074.56;;;10.50;100.00
53719;BME280;39616;48.872;9.390;2023-05-16T05:43:01;98080.47;;;10.52;100.00
53719;BME280;39616;48.872;9.390;2023-05-16T05:45:31;98085.56;;;10.67;100.00
53719;BME280;39616;48.872;9.390;2023-05-16T05:48:02;98079.84;;;10.69;100.00
53719;BME280;39616;48.872;9.390;2023-05-16T05:50:32;98089.72;;;10.64;100.00
53719;BME280;39616;48.872;9.390;2023-05-16T05:53:03;98089.59;;;10.56;100.00
53719;BME280;39616;48.872;9.390;2023-05-16T05:55:33;98088.50;;;10.57;100.00
53719;BME280;39616;48.872;9.390;2023-05-16T05:58:04;98099.53;;;10.74;100.00
53719;BME280;39616;48.872;9.390;2023-05-16T06:00:34;98095.22;;;10.73;100.00
53719;BME280;39616;48.872;9.390;2023-05-16T06:03:04;98091.25;;;10.93;100.00
53719;BME280;39616;48.872;9.390;2023-05-16T06:05:35;98095.69;;;11.03;100.00
53719;BME280;39616;48.872;9.390;2023-05-16T06:08:05;98095.00;;;10.97;100.00
53719;BME280;39616;48.872;9.390;2023-05-16T06:10:35;98099.72;;;10.92;100.00
53719;BME280;39616;48.872;9.390;2023-05-16T06:13:06;98101.81;;;11.08;100.00
53719;BME280;39616;48.872;9.390;2023-05-16T06:15:36;98104.81;;;11.07;100.00
53719;BME280;39616;48.872;9.390;2023-05-16T06:18:06;98104.47;;;11.22;100.00
53719;BME280;39616;48.872;9.390;2023-05-16T06:20:36;98100.75;;;11.18;100.00
53719;BME280;39616;48.872;9.390;2023-05-16T06:23:07;98096.63;;;11.34;100.00
53719;BME280;39616;48.872;9.390;2023-05-16T06:25:37;98103.88;;;11.48;100.00
53719;BME280;39616;48.872;9.390;2023-05-16T06:28:07;98106.22;;;11.41;100.00
53719;BME280;39616;48.872;9.390;2023-05-16T06:30:38;98108.47;;;11.39;100.00
53719;BME280;39616;48.872;9.390;2023-05-16T06:33:08;98113.81;;;11.52;100.00
53719;BME280;39616;48.872;9.390;2023-05-16T06:35:38;98109.69;;;11.55;100.00
53719;BME280;39616;48.872;9.390;2023-05-16T06:38:09;98112.72;;;11.53;100.00
53719;BME280;39616;48.872;9.390;2023-05-16T06:40:39;98109.97;;;11.67;100.00
53719;BME280;39616;48.872;9.390;2023-05-16T06:43:10;98109.09;;;11.58;100.00
53719;BME280;39616;48.872;9.390;2023-05-16T06:45:41;98114.50;;;11.58;100.00
53719;BME280;39616;48.872;9.390;2023-05-16T06:48:13;98112.53;;;11.50;100.00
53719;BME280;39616;48.872;9.390;2023-05-16T06:50:51;98110.00;;;11.53;100.00
53719;BME280;39616;48.872;9.390;2023-05-16T06:53:22;98116.00;;;11.64;100.00
53719;BME280;39616;48.872;9.390;2023-05-16T06:55:52;98117.00;;;11.68;100.00
53719;BME280;39616;48.872;9.390;2023-05-16T06:58:22;98111.75;;;11.72;100.00
53719;BME280;39616;48.872;9.390;2023-05-16T07:00:53;98118.34;;;11.34;100.00
53719;BME280;39616;48.872;9.390;2023-05-16T07:03:23;98125.03;;;11.37;100.00
53719;BME280;39616;48.872;9.390;2023-05-16T07:05:53;98115.56;;;11.48;100.00
53719;BME280;39616;48.872;9.390;2023-05-16T07:08:24;98130.75;;;11.49;100.00
53719;BME280;39616;48.872;9.390;2023-05-16T07:10:55;98124.69;;;11.52;100.00
53719;BME280;39616;48.872;9.390;2023-05-16T07:13:25;98125.06;;;11.59;100.00
53719;BME280;39616;48.872;9.390;2023-05-16T07:15:55;98125.06;;;11.59;100.00
53719;BME280;39616;48.872;9.390;2023-05-16T07:18:25;98127.13;;;11.76;99.16
53719;BME280;39616;48.872;9.390;2023-05-16T07:20:56;98121.06;;;11.79;98.25
53719;BME280;39616;48.872;9.390;2023-05-16T07:23:26;98115.72;;;11.88;97.13
53719;BME280;39616;48.872;9.390;2023-05-16T07:25:57;98122.88;;;11.84;96.18
53719;BME280;39616;48.872;9.390;2023-05-16T07:28:27;98118.69;;;12.00;95.32
53719;BME280;39616;48.872;9.390;2023-05-16T07:30:58;98119.03;;;12.07;96.13
53719;BME280;39616;48.872;9.390;2023-05-16T07:33:28;98124.22;;;12.18;94.62
53719;BME280;39616;48.872;9.390;2023-05-16T07:35:58;98128.66;;;12.14;95.26
53719;BME280;39616;48.872;9.390;2023-05-16T07:38:29;98120.66;;;12.08;95.34
53719;BME280;39616;48.872;9.390;2023-05-16T07:40:59;98127.72;;;12.18;97.09
53719;BME280;39616;48.872;9.390;2023-05-16T07:43:30;98118.19;;;12.29;94.75
53719;BME280;39616;48.872;9.390;2023-05-16T07:46:01;98125.72;;;12.32;92.14
53719;BME280;39616;48.872;9.390;2023-05-16T07:48:32;98123.25;;;12.22;92.15
53719;BME280;39616;48.872;9.390;2023-05-16T07:51:02;98140.13;;;12.33;91.47
53719;BME280;39616;48.872;9.390;2023-05-16T07:53:32;98139.91;;;12.21;90.36
53719;BME280;39616;48.872;9.390;2023-05-16T07:56:03;98139.00;;;12.03;90.13
53719;BME280;39616;48.872;9.390;2023-05-16T07:58:34;98147.41;;;12.15;90.92
53719;BME280;39616;48.872;9.390;2023-05-16T08:01:04;98145.25;;;12.35;92.48
53719;BME280;39616;48.872;9.390;2023-05-16T08:03:35;98147.72;;;12.22;92.94
53719;BME280;39616;48.872;9.390;2023-05-16T08:06:06;98158.13;;;12.20;94.73
53719;BME280;39616;48.872;9.390;2023-05-16T08:08:36;98156.56;;;11.97;94.67
53719;BME280;39616;48.872;9.390;2023-05-16T08:11:07;98159.50;;;11.87;95.79
53719;BME280;39616;48.872;9.390;2023-05-16T08:13:37;98156.97;;;11.90;95.87
53719;BME280;39616;48.872;9.390;2023-05-16T08:16:07;98157.81;;;11.99;96.23
53719;BME280;39616;48.872;9.390;2023-05-16T08:18:37;98157.66;;;11.96;97.21
53719;BME280;39616;48.872;9.390;2023-05-16T08:21:08;98158.53;;;12.05;96.54
53719;BME280;39616;48.872;9.390;2023-05-16T08:23:39;98163.69;;;11.93;96.82
53719;BME280;39616;48.872;9.390;2023-05-16T08:26:09;98163.81;;;11.88;98.18
53719;BME280;39616;48.872;9.390;2023-05-16T08:28:39;98164.81;;;11.92;98.78
53719;BME280;39616;48.872;9.390;2023-05-16T08:31:10;98158.38;;;11.88;98.86
53719;BME280;39616;48.872;9.390;2023-05-16T08:33:40;98159.09;;;11.79;100.00
53719;BME280;39616;48.872;9.390;2023-05-16T08:36:11;98163.28;;;11.63;100.00
53719;BME280;39616;48.872;9.390;2023-05-16T08:38:43;98164.19;;;11.58;100.00
53719;BME280;39616;48.872;9.390;2023-05-16T08:41:14;98167.91;;;11.63;100.00
53719;BME280;39616;48.872;9.390;2023-05-16T08:43:44;98163.91;;;11.60;100.00
53719;BME280;39616;48.872;9.390;2023-05-16T08:46:17;98170.56;;;11.54;100.00
53719;BME280;39616;48.872;9.390;2023-05-16T08:48:51;98176.78;;;11.54;100.00
53719;BME280;39616;48.872;9.390;2023-05-16T08:51:24;98175.94;;;11.68;100.00
53719;BME280;39616;48.872;9.390;2023-05-16T08:53:59;98175.75;;;11.64;100.00
53719;BME280;39616;48.872;9.390;2023-05-16T08:56:32;98188.03;;;11.61;100.00
53719;BME280;39616;48.872;9.390;2023-05-16T08:59:03;98190.00;;;11.83;100.00
53719;BME280;39616;48.872;9.390;2023-05-16T09:01:33;98187.47;;;11.87;100.00
53719;BME280;39616;48.872;9.390;2023-05-16T09:04:06;98187.50;;;11.73;100.00
53719;BME280;39616;48.872;9.390;2023-05-16T09:06:37;98184.03;;;11.81;100.00
53719;BME280;39616;48.872;9.390;2023-05-16T09:09:07;98191.88;;;11.83;100.00
53719;BME280;39616;48.872;9.390;2023-05-16T09:11:41;98193.72;;;11.88;98.99
53719;BME280;39616;48.872;9.390;2023-05-16T09:14:11;98186.34;;;11.88;99.17
53719;BME280;39616;48.872;9.390;2023-05-16T09:16:41;98194.59;;;11.83;100.00
53719;BME280;39616;48.872;9.390;2023-05-16T09:19:12;98201.19;;;11.68;100.00
53719;BME280;39616;48.872;9.390;2023-05-16T09:21:43;98196.81;;;11.81;100.00
53719;BME280;39616;48.872;9.390;2023-05-16T09:24:13;98197.53;;;11.87;100.00
53719;BME280;39616;48.872;9.390;2023-05-16T09:26:44;98195.63;;;11.73;99.56
53719;BME280;39616;48.872;9.390;2023-05-16T09:29:14;98194.28;;;11.98;99.64
53719;BME280;39616;48.872;9.390;2023-05-16T09:31:44;98190.75;;;11.98;96.77
53719;BME280;39616;48.872;9.390;2023-05-16T09:34:14;98189.59;;;12.13;96.32
53719;BME280;39616;48.872;9.390;2023-05-16T09:36:45;98193.84;;;12.27;95.33
53719;BME280;39616;48.872;9.390;2023-05-16T09:39:15;98186.84;;;12.66;93.14
53719;BME280;39616;48.872;9.390;2023-05-16T09:41:51;98193.19;;;12.53;91.63
53719;BME280;39616;48.872;9.390;2023-05-16T09:44:21;98198.38;;;12.41;94.16
53719;BME280;39616;48.872;9.390;2023-05-16T09:46:53;98204.47;;;12.38;93.38
53719;BME280;39616;48.872;9.390;2023-05-16T09:49:25;98198.84;;;12.34;93.92
53719;BME280;39616;48.872;9.390;2023-05-16T09:51:55;98205.25;;;12.38;94.87
53719;BME280;39616;48.872;9.390;2023-05-16T09:54:32;98204.97;;;12.17;96.85
53719;BME280;39616;48.872;9.390;2023-05-16T09:57:03;98203.72;;;12.23;97.49
53719;BME280;39616;48.872;9.390;2023-05-16T09:59:37;98208.19;;;12.19;99.08
53719;BME280;39616;48.872;9.390;2023-05-16T10:02:08;98204.78;;;11.91;98.33
53719;BME280;39616;48.872;9.390;2023-05-16T10:04:39;98202.25;;;11.95;97.71
53719;BME280;39616;48.872;9.390;2023-05-16T10:07:10;98205.00;;;12.03;99.70
53719;BME280;39616;48.872;9.390;2023-05-16T10:09:43;98196.19;;;11.98;98.84
53719;BME280;39616;48.872;9.390;2023-05-16T10:12:14;98195.13;;;12.07;99.21
53719;BME280;39616;48.872;9.390;2023-05-16T10:14:45;98194.09;;;11.95;99.22
53719;BME280;39616;48.872;9.390;2023-05-16T10:17:19;98192.78;;;11.92;100.00
53719;BME280;39616;48.872;9.390;2023-05-16T10:19:52;98199.53;;;11.95;100.00
53719;BME280;39616;48.872;9.390;2023-05-16T10:22:23;98191.50;;;12.12;100.00
53719;BME280;39616;48.872;9.390;2023-05-16T10:25:11;98189.44;;;12.18;99.54
53719;BME280;39616;48.872;9.390;2023-05-16T10:27:45;98192.84;;;12.23;99.19
53719;BME280;39616;48.872;9.390;2023-05-16T10:30:17;98192.31;;;12.13;100.00
53719;BME280;39616;48.872;9.390;2023-05-16T10:32:49;98191.22;;;12.00;100.00
53719;BME280;39616;48.872;9.390;2023-05-16T10:35:21;98196.25;;;12.06;100.00
53719;BME280;39616;48.872;9.390;2023-05-16T10:37:51;98192.06;;;12.23;100.00
53719;BME280;39616;48.872;9.390;2023-05-16T10:40:22;98196.84;;;12.26;98.17
53719;BME280;39616;48.872;9.390;2023-05-16T10:42:57;98189.00;;;12.24;97.80
53719;BME280;39616;48.872;9.390;2023-05-16T10:45:28;98191.81;;;12.73;94.26
53719;BME280;39616;48.872;9.390;2023-05-16T10:48:03;98188.81;;;12.74;92.38
53719;BME280;39616;48.872;9.390;2023-05-16T10:50:37;98180.47;;;13.19;90.10
53719;BME280;39616;48.872;9.390;2023-05-16T10:53:19;98180.94;;;13.13;89.69
53719;BME280;39616;48.872;9.390;2023-05-16T10:56:05;98191.31;;;13.11;88.37
53719;BME280;39616;48.872;9.390;2023-05-16T11:04:11;98193.75;;;13.12;88.03
53719;BME280;39616;48.872;9.390;2023-05-16T11:14:34;98200.84;;;12.82;87.58
53719;BME280;39616;48.872;9.390;2023-05-16T11:17:10;98199.34;;;12.67;87.96
53719;BME280;39616;48.872;9.390;2023-05-16T11:19:45;98197.97;;;12.87;88.10
53719;BME280;39616;48.872;9.390;2023-05-16T11:25:05;98204.00;;;13.15;86.40
53719;BME280;39616;48.872;9.390;2023-05-16T11:27:42;98198.84;;;13.14;86.27
53719;BME280;39616;48.872;9.390;2023-05-16T11:30:14;98195.75;;;12.89;86.86
53719;BME280;39616;48.872;9.390;2023-05-16T11:32:47;98198.16;;;12.99;88.44
53719;BME280;39616;48.872;9.390;2023-05-16T11:35:18;98202.25;;;13.19;87.41
53719;BME280;39616;48.872;9.390;2023-05-16T11:37:48;98200.06;;;13.30;85.95
53719;BME280;39616;48.872;9.390;2023-05-16T11:40:19;98209.06;;;12.99;87.44
53719;BME280;39616;48.872;9.390;2023-05-16T11:42:50;98214.31;;;12.96;88.35
53719;BME280;39616;48.872;9.390;2023-05-16T11:45:21;98212.69;;;12.86;88.14
53719;BME280;39616;48.872;9.390;2023-05-16T11:48:00;98209.41;;;12.36;91.39
53719;BME280;39616;48.872;9.390;2023-05-16T11:50:33;98218.97;;;12.33;92.76
53719;BME280;39616;48.872;9.390;2023-05-16T11:53:05;98226.84;;;12.12;94.62
53719;BME280;39616;48.872;9.390;2023-05-16T11:55:35;98231.91;;;12.05;96.26
53719;BME280;39616;48.872;9.390;2023-05-16T11:58:08;98232.13;;;11.95;98.17
53719;BME280;39616;48.872;9.390;2023-05-16T12:00:46;98239.66;;;11.98;97.20
53719;BME280;39616;48.872;9.390;2023-05-16T12:03:18;98241.91;;;11.82;97.18
53719;BME280;39616;48.872;9.390;2023-05-16T12:05:54;98241.50;;;11.89;97.98
53719;BME280;39616;48.872;9.390;2023-05-16T12:08:26;98244.63;;;11.82;97.79
53719;BME280;39616;48.872;9.390;2023-05-16T12:10:56;98242.00;;;11.91;98.01
53719;BME280;39616;48.872;9.390;2023-05-16T12:13:27;98243.41;;;11.88;98.28
53719;BME280;39616;48.872;9.390;2023-05-16T12:15:58;98247.75;;;11.75;98.41
53719;BME280;39616;48.872;9.390;2023-05-16T12:18:29;98247.31;;;11.96;96.64
53719;BME280;39616;48.872;9.390;2023-05-16T12:20:59;98249.56;;;12.16;95.37
53719;BME280;39616;48.872;9.390;2023-05-16T12:23:32;98249.63;;;12.25;94.11
53719;BME280;39616;48.872;9.390;2023-05-16T12:26:03;98256.94;;;12.38;93.56
53719;BME280;39616;48.872;9.390;2023-05-16T12:28:37;98249.25;;;12.18;91.76
53719;BME280;39616;48.872;9.390;2023-05-16T12:31:18;98245.59;;;12.22;89.59
53719;BME280;39616;48.872;9.390;2023-05-16T12:33:52;98253.03;;;12.30;88.70
53719;BME280;39616;48.872;9.390;2023-05-16T12:36:24;98247.94;;;12.60;86.13
53719;BME280;39616;48.872;9.390;2023-05-16T12:39:01;98252.72;;;12.86;84.39
53719;BME280;39616;48.872;9.390;2023-05-16T12:41:39;98257.75;;;13.01;82.41
53719;BME280;39616;48.872;9.390;2023-05-16T12:44:17;98256.28;;;12.95;82.81
53719;BME280;39616;48.872;9.390;2023-05-16T12:46:49;98260.09;;;12.85;82.63
53719;BME280;39616;48.872;9.390;2023-05-16T12:49:21;98256.28;;;12.95;82.59
53719;BME280;39616;48.872;9.390;2023-05-16T12:51:54;98261.28;;;13.10;82.17
53719;BME280;39616;48.872;9.390;2023-05-16T12:54:26;98260.91;;;13.25;80.57
53719;BME280;39616;48.872;9.390;2023-05-16T12:56:56;98263.16;;;13.32;80.08
53719;BME280;39616;48.872;9.390;2023-05-16T12:59:26;98257.09;;;13.26;80.03
53719;BME280;39616;48.872;9.390;2023-05-16T13:01:58;98266.44;;;13.12;80.50
53719;BME280;39616;48.872;9.390;2023-05-16T13:04:29;98271.53;;;13.04;80.89
53719;BME280;39616;48.872;9.390;2023-05-16T13:06:59;98272.25;;;13.19;79.74
53719;BME280;39616;48.872;9.390;2023-05-16T13:09:30;98263.91;;;13.15;79.01
53719;BME280;39616;48.872;9.390;2023-05-16T13:12:00;98267.09;;;13.17;79.98
53719;BME280;39616;48.872;9.390;2023-05-16T13:14:30;98274.72;;;13.06;79.53
53719;BME280;39616;48.872;9.390;2023-05-16T13:17:01;98271.81;;;12.94;79.23
53719;BME280;39616;48.872;9.390;2023-05-16T13:19:33;98269.84;;;12.86;79.58
53719;BME280;39616;48.872;9.390;2023-05-16T13:22:03;98282.00;;;12.57;83.18
53719;BME280;39616;48.872;9.390;2023-05-16T13:24:34;98273.44;;;12.42;84.84
53719;BME280;39616;48.872;9.390;2023-05-16T13:27:04;98296.72;;;12.34;84.61
53719;BME280;39616;48.872;9.390;2023-05-16T13:29:35;98290.34;;;12.16;85.25
53719;BME280;39616;48.872;9.390;2023-05-16T13:32:05;98284.16;;;12.24;86.07
53719;BME280;39616;48.872;9.390;2023-05-16T13:34:36;98285.72;;;12.17;84.89
53719;BME280;39616;48.872;9.390;2023-05-16T13:37:06;98280.78;;;12.19;84.81
53719;BME280;39616;48.872;9.390;2023-05-16T13:39:37;98285.72;;;12.39;84.12
53719;BME280;39616;48.872;9.390;2023-05-16T13:42:07;98292.88;;;12.57;83.94